createdAt,value
2023-01-15T13:00:42.949Z,98218.91
2023-01-15T13:03:48.190Z,98219.13
2023-01-15T13:11:43.157Z,98230.94
2023-01-15T13:14:18.114Z,98230.28
2023-01-15T13:17:38.234Z,98232.13
2023-01-15T13:20:39.935Z,98242.25
2023-01-15T13:24:01.019Z,98236.91
2023-01-15T13:27:25.365Z,98244.97
2023-01-15T13:30:47.673Z,98257.50
2023-01-15T13:33:53.805Z,98259.75
2023-01-15T13:36:46.210Z,98266.59
2023-01-15T13:39:25.087Z,98263.75
2023-01-15T13:42:13.254Z,98253.41
2023-01-15T13:44:51.998Z,98262.72
2023-01-15T13:47:28.348Z,98257.09
2023-01-15T13:50:13.783Z,98264.34
2023-01-15T13:52:41.559Z,98277.00
2023-01-15T13:55:38.304Z,98270.03
2023-01-15T13:58:30.491Z,98276.66
2023-01-15T14:01:20.676Z,98279.91
2023-01-15T14:04:17.627Z,98278.34
2023-01-15T14:06:52.845Z,98284.88
2023-01-15T14:09:22.975Z,98279.97
2023-01-15T14:12:07.966Z,98283.41
2023-01-15T14:15:43.000Z,98277.44
2023-01-15T14:18:59.245Z,98280.34
2023-01-15T14:22:17.089Z,98282.03
2023-01-15T14:25:03.090Z,98275.44
2023-01-15T14:27:58.946Z,98271.06
2023-01-15T14:30:56.973Z,98282.38
2023-01-15T14:34:21.679Z,98279.53
2023-01-15T14:37:41.405Z,98289.13
2023-01-15T14:40:31.842Z,98296.19
2023-01-15T14:43:19.327Z,98295.97
2023-01-15T14:45:50.123Z,98294.13
2023-01-15T14:48:29.261Z,98296.41
2023-01-15T14:51:45.378Z,98307.16
2023-01-15T14:54:19.835Z,98304.19
2023-01-15T14:56:57.448Z,98304.66
2023-01-15T15:00:04.443Z,98321.44
2023-01-15T15:02:42.994Z,98317.75
2023-01-15T15:05:22.247Z,98327.00
2023-01-15T15:07:55.665Z,98315.81
2023-01-15T15:10:39.685Z,98326.66
2023-01-15T15:13:36.095Z,98330.22
2023-01-15T15:16:31.266Z,98316.97
2023-01-15T15:19:28.331Z,98308.41
2023-01-15T15:22:00.313Z,98306.13
2023-01-15T15:24:48.522Z,98312.06
2023-01-15T15:27:19.914Z,98306.00
2023-01-15T15:29:47.659Z,98308.66
2023-01-15T15:32:25.450Z,98309.91
2023-01-15T15:34:54.847Z,98310.81
2023-01-15T15:37:28.284Z,98306.00
2023-01-15T15:40:19.911Z,98291.28
2023-01-15T15:44:12.850Z,98293.56
2023-01-15T15:47:09.580Z,98291.03
2023-01-15T15:49:41.826Z,98287.50
2023-01-15T15:52:44.761Z,98290.91
2023-01-15T15:55:17.381Z,98281.56
2023-01-15T15:57:51.058Z,98278.59
2023-01-15T16:00:34.526Z,98273.81
2023-01-15T16:03:16.491Z,98274.59
2023-01-15T16:05:54.644Z,98273.91
2023-01-15T16:08:22.160Z,98280.56
2023-01-15T16:10:59.117Z,98271.78
2023-01-15T16:13:35.772Z,98271.75
2023-01-15T16:16:05.526Z,98267.41
2023-01-15T16:18:44.366Z,98262.09
2023-01-15T16:21:26.676Z,98262.44
2023-01-15T16:24:02.567Z,98255.22
2023-01-15T16:26:48.315Z,98260.16
2023-01-15T16:29:33.131Z,98247.66
2023-01-15T16:32:01.160Z,98246.88
2023-01-15T16:34:34.568Z,98239.63
2023-01-15T16:37:02.545Z,98235.25
2023-01-15T16:39:45.334Z,98218.16
2023-01-15T16:42:37.903Z,98220.88
2023-01-15T16:45:23.677Z,98217.34
2023-01-15T16:48:38.527Z,98219.97
2023-01-15T16:51:35.869Z,98217.75
2023-01-15T16:54:21.453Z,98220.84
2023-01-15T16:56:54.473Z,98205.16
2023-01-15T16:59:27.721Z,98211.50
2023-01-15T17:02:20.442Z,98206.78
2023-01-15T17:04:49.092Z,98198.44
2023-01-15T17:07:38.762Z,98207.38
2023-01-15T17:10:27.620Z,98195.97
2023-01-15T17:12:56.347Z,98204.13
2023-01-15T17:15:26.497Z,98199.81
2023-01-15T17:17:56.816Z,98196.19
2023-01-15T17:20:29.944Z,98193.91
2023-01-15T17:22:57.443Z,98185.25
2023-01-15T17:25:35.344Z,98171.09
2023-01-15T17:28:05.141Z,98171.63
2023-01-15T17:30:33.521Z,98168.91
